sensor_id;sensor_type;location;lat;lon;timestamp;P1;durP1;ratioP1;P2;durP2;ratioP2
30420;SDS011;17218;54.070;10.012;2023-05-07T00:01:18;15.02;;;11.52;;
30420;SDS011;17218;54.070;10.012;2023-05-07T00:03:44;14.45;;;11.85;;
30420;SDS011;17218;54.070;10.012;2023-05-07T00:06:12;14.32;;;11.85;;
30420;SDS011;17218;54.070;10.012;2023-05-07T00:08:39;14.18;;;11.55;;
30420;SDS011;17218;54.070;10.012;2023-05-07T00:11:05;15.75;;;11.90;;
30420;SDS011;17218;54.070;10.012;2023-05-07T00:13:32;13.23;;;11.82;;
30420;SDS011;17218;54.070;10.012;2023-05-07T00:16:00;14.90;;;12.00;;
30420;SDS011;17218;54.070;10.012;2023-05-07T00:18:27;15.18;;;12.07;;
30420;SDS011;17218;54.070;10.012;2023-05-07T00:20:53;14.55;;;12.57;;
30420;SDS011;17218;54.070;10.012;2023-05-07T00:23:21;17.58;;;12.85;;
30420;SDS011;17218;54.070;10.012;2023-05-07T00:25:48;13.82;;;11.77;;
30420;SDS011;17218;54.070;10.012;2023-05-07T00:28:14;19.70;;;11.68;;
30420;SDS011;17218;54.070;10.012;2023-05-07T00:30:41;17.52;;;12.40;;
30420;SDS011;17218;54.070;10.012;2023-05-07T00:33:07;16.35;;;12.02;;
30420;SDS011;17218;54.070;10.012;2023-05-07T00:35:34;13.43;;;11.68;;
30420;SDS011;17218;54.070;10.012;2023-05-07T00:38:00;15.35;;;12.07;;
30420;SDS011;17218;54.070;10.012;2023-05-07T00:40:28;15.30;;;12.20;;
30420;SDS011;17218;54.070;10.012;2023-05-07T00:42:54;15.57;;;11.90;;
30420;SDS011;17218;54.070;10.012;2023-05-07T00:45:23;16.95;;;12.52;;
30420;SDS011;17218;54.070;10.012;2023-05-07T00:47:53;16.15;;;12.73;;
30420;SDS011;17218;54.070;10.012;2023-05-07T00:50:20;16.50;;;12.25;;
30420;SDS011;17218;54.070;10.012;2023-05-07T00:52:47;16.10;;;12.57;;
30420;SDS011;17218;54.070;10.012;2023-05-07T00:55:14;14.82;;;12.32;;
30420;SDS011;17218;54.070;10.012;2023-05-07T00:57:41;13.60;;;12.00;;
30420;SDS011;17218;54.070;10.012;2023-05-07T01:00:08;16.80;;;13.25;;
30420;SDS011;17218;54.070;10.012;2023-05-07T01:02:37;15.93;;;12.65;;
30420;SDS011;17218;54.070;10.012;2023-05-07T01:05:04;18.27;;;13.70;;
30420;SDS011;17218;54.070;10.012;2023-05-07T01:07:34;17.35;;;14.75;;
30420;SDS011;17218;54.070;10.012;2023-05-07T01:10:02;19.95;;;14.50;;
30420;SDS011;17218;54.070;10.012;2023-05-07T01:12:30;16.83;;;13.55;;
30420;SDS011;17218;54.070;10.012;2023-05-07T01:14:58;17.50;;;14.13;;
30420;SDS011;17218;54.070;10.012;2023-05-07T01:17:25;16.13;;;13.77;;
30420;SDS011;17218;54.070;10.012;2023-05-07T01:19:52;15.75;;;13.90;;
30420;SDS011;17218;54.070;10.012;2023-05-07T01:22:24;19.15;;;14.27;;
30420;SDS011;17218;54.070;10.012;2023-05-07T01:24:55;15.27;;;13.50;;
30420;SDS011;17218;54.070;10.012;2023-05-07T01:27:21;16.42;;;14.32;;
30420;SDS011;17218;54.070;10.012;2023-05-07T01:29:48;17.75;;;14.95;;
30420;SDS011;17218;54.070;10.012;2023-05-07T01:32:14;19.05;;;14.90;;
30420;SDS011;17218;54.070;10.012;2023-05-07T01:34:45;17.40;;;15.48;;
30420;SDS011;17218;54.070;10.012;2023-05-07T01:37:14;16.25;;;13.80;;
30420;SDS011;17218;54.070;10.012;2023-05-07T01:39:42;15.52;;;13.60;;
30420;SDS011;17218;54.070;10.012;2023-05-07T01:42:09;16.70;;;14.13;;
30420;SDS011;17218;54.070;10.012;2023-05-07T01:44:35;16.23;;;13.05;;
30420;SDS011;17218;54.070;10.012;2023-05-07T01:47:02;16.90;;;13.75;;
30420;SDS011;17218;54.070;10.012;2023-05-07T01:49:29;16.98;;;13.23;;
30420;SDS011;17218;54.070;10.012;2023-05-07T01:51:56;17.13;;;13.70;;
30420;SDS011;17218;54.070;10.012;2023-05-07T01:54:25;14.90;;;13.20;;
30420;SDS011;17218;54.070;10.012;2023-05-07T01:56:54;17.23;;;12.98;;
30420;SDS011;17218;54.070;10.012;2023-05-07T01:59:21;12.65;;;11.15;;
30420;SDS011;17218;54.070;10.012;2023-05-07T02:01:48;13.23;;;11.63;;
30420;SDS011;17218;54.070;10.012;2023-05-07T02:04:15;14.50;;;12.02;;
30420;SDS011;17218;54.070;10.012;2023-05-07T02:06:41;12.80;;;11.50;;
30420;SDS011;17218;54.070;10.012;2023-05-07T02:09:07;12.38;;;10.45;;
30420;SDS011;17218;54.070;10.012;2023-05-07T02:11:34;13.63;;;11.15;;
30420;SDS011;17218;54.070;10.012;2023-05-07T02:14:02;11.43;;;9.95;;
30420;SDS011;17218;54.070;10.012;2023-05-07T02:16:29;11.95;;;10.70;;
30420;SDS011;17218;54.070;10.012;2023-05-07T02:18:55;11.88;;;10.57;;
30420;SDS011;17218;54.070;10.012;2023-05-07T02:21:23;12.52;;;11.23;;
30420;SDS011;17218;54.070;10.012;2023-05-07T02:23:50;15.90;;;11.95;;
30420;SDS011;17218;54.070;10.012;2023-05-07T02:26:16;12.82;;;11.23;;
30420;SDS011;17218;54.070;10.012;2023-05-07T02:28:44;13.55;;;12.15;;
30420;SDS011;17218;54.070;10.012;2023-05-07T02:31:12;14.25;;;11.82;;
30420;SDS011;17218;54.070;10.012;2023-05-07T02:33:39;12.98;;;11.68;;
30420;SDS011;17218;54.070;10.012;2023-05-07T02:36:06;13.07;;;11.63;;
30420;SDS011;17218;54.070;10.012;2023-05-07T02:38:33;13.40;;;12.00;;
30420;SDS011;17218;54.070;10.012;2023-05-07T02:41:00;14.73;;;11.85;;
30420;SDS011;17218;54.070;10.012;2023-05-07T02:43:26;14.98;;;11.77;;
30420;SDS011;17218;54.070;10.012;2023-05-07T02:45:59;15.05;;;11.95;;
30420;SDS011;17218;54.070;10.012;2023-05-07T02:48:28;13.45;;;12.13;;
30420;SDS011;17218;54.070;10.012;2023-05-07T02:50:54;13.27;;;11.93;;
30420;SDS011;17218;54.070;10.012;2023-05-07T02:53:21;14.15;;;12.00;;
30420;SDS011;17218;54.070;10.012;2023-05-07T02:55:47;13.02;;;11.23;;
30420;SDS011;17218;54.070;10.012;2023-05-07T02:58:13;13.67;;;12.03;;
30420;SDS011;17218;54.070;10.012;2023-05-07T03:00:40;14.13;;;12.15;;
30420;SDS011;17218;54.070;10.012;2023-05-07T03:03:07;14.75;;;12.38;;
30420;SDS011;17218;54.070;10.012;2023-05-07T03:05:34;13.93;;;11.73;;
30420;SDS011;17218;54.070;10.012;2023-05-07T03:08:01;14.35;;;12.20;;
30420;SDS011;17218;54.070;10.012;2023-05-07T03:10:27;13.50;;;11.70;;
30420;SDS011;17218;54.070;10.012;2023-05-07T03:12:54;13.55;;;11.63;;
30420;SDS011;17218;54.070;10.012;2023-05-07T03:15:20;12.18;;;10.98;;
30420;SDS011;17218;54.070;10.012;2023-05-07T03:17:47;11.50;;;10.30;;
30420;SDS011;17218;54.070;10.012;2023-05-07T03:20:14;12.43;;;10.13;;
30420;SDS011;17218;54.070;10.012;2023-05-07T03:22:42;10.63;;;9.48;;
30420;SDS011;17218;54.070;10.012;2023-05-07T03:25:09;13.13;;;10.00;;
30420;SDS011;17218;54.070;10.012;2023-05-07T03:27:36;12.35;;;10.23;;
30420;SDS011;17218;54.070;10.012;2023-05-07T03:30:03;13.07;;;10.75;;
30420;SDS011;17218;54.070;10.012;2023-05-07T03:32:31;12.23;;;10.88;;
30420;SDS011;17218;54.070;10.012;2023-05-07T03:34:58;11.70;;;10.52;;
30420;SDS011;17218;54.070;10.012;2023-05-07T03:37:24;14.45;;;11.52;;
30420;SDS011;17218;54.070;10.012;2023-05-07T03:39:52;13.65;;;12.20;;
30420;SDS011;17218;54.070;10.012;2023-05-07T03:45:46;14.40;;;11.68;;
30420;SDS011;17218;54.070;10.012;2023-05-07T03:48:12;11.25;;;10.05;;
30420;SDS011;17218;54.070;10.012;2023-05-07T03:50:39;10.95;;;9.43;;
30420;SDS011;17218;54.070;10.012;2023-05-07T03:53:06;10.18;;;9.15;;
30420;SDS011;17218;54.070;10.012;2023-05-07T03:55:34;9.85;;;8.85;;
30420;SDS011;17218;54.070;10.012;2023-05-07T03:58:00;9.32;;;8.27;;
30420;SDS011;17218;54.070;10.012;2023-05-07T04:00:27;10.88;;;9.13;;
30420;SDS011;17218;54.070;10.012;2023-05-07T04:02:53;11.20;;;8.70;;
30420;SDS011;17218;54.070;10.012;2023-05-07T04:05:20;10.25;;;9.18;;
30420;SDS011;17218;54.070;10.012;2023-05-07T04:07:46;10.85;;;8.68;;
30420;SDS011;17218;54.070;10.012;2023-05-07T04:10:13;11.40;;;8.90;;
30420;SDS011;17218;54.070;10.012;2023-05-07T04:12:41;10.52;;;9.13;;
30420;SDS011;17218;54.070;10.012;2023-05-07T04:15:08;9.52;;;8.52;;
30420;SDS011;17218;54.070;10.012;2023-05-07T04:17:34;9.80;;;8.77;;
30420;SDS011;17218;54.070;10.012;2023-05-07T04:20:01;9.77;;;8.13;;
30420;SDS011;17218;54.070;10.012;2023-05-07T04:22:28;9.95;;;8.82;;
30420;SDS011;17218;54.070;10.012;2023-05-07T04:24:55;9.20;;;8.30;;
30420;SDS011;17218;54.070;10.012;2023-05-07T04:27:21;8.80;;;7.90;;
30420;SDS011;17218;54.070;10.012;2023-05-07T04:29:49;11.07;;;8.23;;
30420;SDS011;17218;54.070;10.012;2023-05-07T04:32:16;8.73;;;7.15;;
30420;SDS011;17218;54.070;10.012;2023-05-07T04:34:43;8.70;;;7.68;;
30420;SDS011;17218;54.070;10.012;2023-05-07T04:37:10;11.43;;;8.30;;
30420;SDS011;17218;54.070;10.012;2023-05-07T04:39:36;9.30;;;8.40;;
30420;SDS011;17218;54.070;10.012;2023-05-07T04:42:03;9.30;;;8.30;;
30420;SDS011;17218;54.070;10.012;2023-05-07T04:44:29;9.98;;;8.65;;
30420;SDS011;17218;54.070;10.012;2023-05-07T04:46:58;9.40;;;8.43;;
30420;SDS011;17218;54.070;10.012;2023-05-07T04:49:25;10.13;;;9.13;;
30420;SDS011;17218;54.070;10.012;2023-05-07T04:51:51;9.68;;;8.68;;
30420;SDS011;17218;54.070;10.012;2023-05-07T04:54:18;9.77;;;8.18;;
30420;SDS011;17218;54.070;10.012;2023-05-07T04:56:44;8.93;;;8.02;;
30420;SDS011;17218;54.070;10.012;2023-05-07T04:59:11;8.95;;;8.00;;
30420;SDS011;17218;54.070;10.012;2023-05-07T05:01:37;9.07;;;7.38;;
30420;SDS011;17218;54.070;10.012;2023-05-07T05:04:05;8.70;;;7.65;;
30420;SDS011;17218;54.070;10.012;2023-05-07T05:06:31;9.48;;;7.95;;
30420;SDS011;17218;54.070;10.012;2023-05-07T05:08:58;8.93;;;8.02;;
30420;SDS011;17218;54.070;10.012;2023-05-07T05:11:24;10.30;;;7.97;;
30420;SDS011;17218;54.070;10.012;2023-05-07T05:13:51;10.00;;;8.18;;
30420;SDS011;17218;54.070;10.012;2023-05-07T05:16:17;9.70;;;8.32;;
30420;SDS011;17218;54.070;10.012;2023-05-07T05:18:44;9.35;;;7.75;;
30420;SDS011;17218;54.070;10.012;2023-05-07T05:21:12;9.23;;;8.02;;
30420;SDS011;17218;54.070;10.012;2023-05-07T05:23:38;9.68;;;8.77;;
30420;SDS011;17218;54.070;10.012;2023-05-07T05:26:05;9.18;;;7.05;;
30420;SDS011;17218;54.070;10.012;2023-05-07T05:28:31;9.75;;;7.63;;
30420;SDS011;17218;54.070;10.012;2023-05-07T05:30:58;9.60;;;8.13;;
30420;SDS011;17218;54.070;10.012;2023-05-07T05:33:24;9.10;;;8.20;;
30420;SDS011;17218;54.070;10.012;2023-05-07T05:35:51;8.05;;;7.25;;
30420;SDS011;17218;54.070;10.012;2023-05-07T05:38:19;10.68;;;8.43;;
30420;SDS011;17218;54.070;10.012;2023-05-07T05:40:46;12.40;;;8.50;;
30420;SDS011;17218;54.070;10.012;2023-05-07T05:43:13;9.93;;;8.93;;
30420;SDS011;17218;54.070;10.012;2023-05-07T05:45:39;9.85;;;8.38;;
30420;SDS011;17218;54.070;10.012;2023-05-07T05:48:06;9.88;;;8.88;;
30420;SDS011;17218;54.070;10.012;2023-05-07T05:50:33;10.25;;;8.30;;
30420;SDS011;17218;54.070;10.012;2023-05-07T05:53:00;10.02;;;8.73;;
30420;SDS011;17218;54.070;10.012;2023-05-07T05:55:28;9.75;;;8.57;;
30420;SDS011;17218;54.070;10.012;2023-05-07T05:57:57;10.55;;;8.27;;
30420;SDS011;17218;54.070;10.012;2023-05-07T06:00:24;9.60;;;8.55;;
30420;SDS011;17218;54.070;10.012;2023-05-07T06:02:50;10.32;;;8.48;;
30420;SDS011;17218;54.070;10.012;2023-05-07T06:05:17;8.25;;;6.40;;
30420;SDS011;17218;54.070;10.012;2023-05-07T06:07:43;7.57;;;6.88;;
30420;SDS011;17218;54.070;10.012;2023-05-07T06:10:10;7.90;;;7.10;;
30420;SDS011;17218;54.070;10.012;2023-05-07T06:12:37;9.05;;;8.13;;
30420;SDS011;17218;54.070;10.012;2023-05-07T06:15:04;8.45;;;7.68;;
30420;SDS011;17218;54.070;10.012;2023-05-07T06:17:32;8.77;;;7.82;;
30420;SDS011;17218;54.070;10.012;2023-05-07T06:19:58;7.93;;;7.13;;
30420;SDS011;17218;54.070;10.012;2023-05-07T06:22:24;8.10;;;7.30;;
30420;SDS011;17218;54.070;10.012;2023-05-07T06:24:51;7.38;;;6.68;;
30420;SDS011;17218;54.070;10.012;2023-05-07T06:27:17;7.60;;;6.38;;
30420;SDS011;17218;54.070;10.012;2023-05-07T06:29:47;8.43;;;7.13;;
30420;SDS011;17218;54.070;10.012;2023-05-07T06:32:14;8.20;;;7.28;;
30420;SDS011;17218;54.070;10.012;2023-05-07T06:34:42;8.75;;;7.20;;
30420;SDS011;17218;54.070;10.012;2023-05-07T06:37:08;7.97;;;7.18;;
30420;SDS011;17218;54.070;10.012;2023-05-07T06:39:35;7.53;;;6.78;;
30420;SDS011;17218;54.070;10.012;2023-05-07T06:42:01;8.32;;;7.30;;
30420;SDS011;17218;54.070;10.012;2023-05-07T06:44:29;8.73;;;7.82;;
30420;SDS011;17218;54.070;10.012;2023-05-07T06:46:57;9.93;;;7.72;;
30420;SDS011;17218;54.070;10.012;2023-05-07T06:49:24;9.82;;;8.15;;
30420;SDS011;17218;54.070;10.012;2023-05-07T06:51:50;8.43;;;7.50;;
30420;SDS011;17218;54.070;10.012;2023-05-07T06:54:17;8.65;;;7.82;;
30420;SDS011;17218;54.070;10.012;2023-05-07T06:56:45;8.30;;;7.50;;
30420;SDS011;17218;54.070;10.012;2023-05-07T06:59:11;7.82;;;7.07;;
30420;SDS011;17218;54.070;10.012;2023-05-07T07:01:38;6.97;;;6.28;;
30420;SDS011;17218;54.070;10.012;2023-05-07T07:04:06;7.55;;;6.75;;
30420;SDS011;17218;54.070;10.012;2023-05-07T07:06:32;8.10;;;6.80;;
30420;SDS011;17218;54.070;10.012;2023-05-07T07:08:59;7.20;;;6.50;;
30420;SDS011;17218;54.070;10.012;2023-05-07T07:11:26;7.28;;;6.57;;
30420;SDS011;17218;54.070;10.012;2023-05-07T07:13:52;5.63;;;5.13;;
30420;SDS011;17218;54.070;10.012;2023-05-07T07:16:19;6.05;;;5.45;;
30420;SDS011;17218;54.070;10.012;2023-05-07T07:18:46;6.60;;;5.07;;
30420;SDS011;17218;54.070;10.012;2023-05-07T07:21:14;6.70;;;5.43;;
30420;SDS011;17218;54.070;10.012;2023-05-07T07:23:40;6.63;;;5.93;;
30420;SDS011;17218;54.070;10.012;2023-05-07T07:26:07;6.70;;;5.60;;
30420;SDS011;17218;54.070;10.012;2023-05-07T07:28:33;6.35;;;5.72;;
30420;SDS011;17218;54.070;10.012;2023-05-07T07:31:00;5.65;;;5.15;;
30420;SDS011;17218;54.070;10.012;2023-05-07T07:33:26;5.57;;;5.07;;
30420;SDS011;17218;54.070;10.012;2023-05-07T07:35:53;5.53;;;5.03;;
30420;SDS011;17218;54.070;10.012;2023-05-07T07:38:20;5.65;;;4.95;;
30420;SDS011;17218;54.070;10.012;2023-05-07T07:40:47;5.55;;;4.95;;
30420;SDS011;17218;54.070;10.012;2023-05-07T07:43:13;5.93;;;4.40;;
30420;SDS011;17218;54.070;10.012;2023-05-07T07:45:40;5.68;;;5.18;;
30420;SDS011;17218;54.070;10.012;2023-05-07T07:48:07;4.72;;;4.32;;
30420;SDS011;17218;54.070;10.012;2023-05-07T07:50:33;6.53;;;4.75;;
30420;SDS011;17218;54.070;10.012;2023-05-07T07:53:00;5.82;;;4.90;;
30420;SDS011;17218;54.070;10.012;2023-05-07T07:55:28;5.97;;;4.95;;
30420;SDS011;17218;54.070;10.012;2023-05-07T07:57:56;7.68;;;4.20;;
30420;SDS011;17218;54.070;10.012;2023-05-07T08:00:23;5.55;;;4.97;;
30420;SDS011;17218;54.070;10.012;2023-05-07T08:02:49;4.90;;;4.40;;
30420;SDS011;17218;54.070;10.012;2023-05-07T08:05:16;5.20;;;4.70;;
30420;SDS011;17218;54.070;10.012;2023-05-07T08:07:42;5.30;;;4.80;;
30420;SDS011;17218;54.070;10.012;2023-05-07T08:10:09;5.20;;;4.70;;
30420;SDS011;17218;54.070;10.012;2023-05-07T08:12:37;7.65;;;5.03;;
30420;SDS011;17218;54.070;10.012;2023-05-07T08:15:03;4.88;;;4.47;;
30420;SDS011;17218;54.070;10.012;2023-05-07T08:17:31;5.43;;;4.93;;
30420;SDS011;17218;54.070;10.012;2023-05-07T08:19:57;5.00;;;4.50;;
30420;SDS011;17218;54.070;10.012;2023-05-07T08:22:24;4.32;;;3.95;;
30420;SDS011;17218;54.070;10.012;2023-05-07T08:24:50;4.60;;;4.10;;
30420;SDS011;17218;54.070;10.012;2023-05-07T08:27:18;5.82;;;4.45;;
30420;SDS011;17218;54.070;10.012;2023-05-07T08:29:46;4.97;;;4.28;;
30420;SDS011;17218;54.070;10.012;2023-05-07T08:32:13;5.20;;;4.40;;
30420;SDS011;17218;54.070;10.012;2023-05-07T08:34:40;4.53;;;4.15;;
30420;SDS011;17218;54.070;10.012;2023-05-07T08:37:06;5.25;;;4.80;;
30420;SDS011;17218;54.070;10.012;2023-05-07T08:39:33;4.88;;;4.47;;
30420;SDS011;17218;54.070;10.012;2023-05-07T08:42:00;5.60;;;4.72;;
30420;SDS011;17218;54.070;10.012;2023-05-07T08:44:28;5.10;;;4.70;;
30420;SDS011;17218;54.070;10.012;2023-05-07T08:47:01;5.32;;;4.70;;
30420;SDS011;17218;54.070;10.012;2023-05-07T08:49:28;4.28;;;3.83;;
30420;SDS011;17218;54.070;10.012;2023-05-07T08:51:55;4.20;;;3.80;;
30420;SDS011;17218;54.070;10.012;2023-05-07T08:54:21;5.20;;;4.35;;
30420;SDS011;17218;54.070;10.012;2023-05-07T08:56:48;3.83;;;3.53;;
30420;SDS011;17218;54.070;10.012;2023-05-07T08:59:14;3.78;;;3.47;;
30420;SDS011;17218;54.070;10.012;2023-05-07T09:01:41;4.70;;;4.25;;
30420;SDS011;17218;54.070;10.012;2023-05-07T09:04:09;4.43;;;4.03;;
30420;SDS011;17218;54.070;10.012;2023-05-07T09:06:37;4.05;;;3.65;;
30420;SDS011;17218;54.070;10.012;2023-05-07T09:09:07;4.75;;;4.25;;
30420;SDS011;17218;54.070;10.012;2023-05-07T09:11:33;4.07;;;3.67;;
30420;SDS011;17218;54.070;10.012;2023-05-07T09:14:00;4.05;;;3.58;;
30420;SDS011;17218;54.070;10.012;2023-05-07T09:16:28;5.22;;;4.03;;
30420;SDS011;17218;54.070;10.012;2023-05-07T09:18:57;5.30;;;3.88;;
30420;SDS011;17218;54.070;10.012;2023-05-07T09:21:25;4.20;;;3.80;;
30420;SDS011;17218;54.070;10.012;2023-05-07T09:23:53;4.05;;;3.65;;
30420;SDS011;17218;54.070;10.012;2023-05-07T09:26:21;4.10;;;3.70;;
30420;SDS011;17218;54.070;10.012;2023-05-07T09:28:48;3.85;;;3.55;;
30420;SDS011;17218;54.070;10.012;2023-05-07T09:31:15;3.83;;;3.38;;
30420;SDS011;17218;54.070;10.012;2023-05-07T09:33:41;3.67;;;3.38;;
30420;SDS011;17218;54.070;10.012;2023-05-07T09:36:09;4.63;;;3.42;;
30420;SDS011;17218;54.070;10.012;2023-05-07T09:38:37;3.72;;;3.42;;
30420;SDS011;17218;54.070;10.012;2023-05-07T09:41:05;4.50;;;3.72;;
30420;SDS011;17218;54.070;10.012;2023-05-07T09:43:32;3.53;;;3.22;;
30420;SDS011;17218;54.070;10.012;2023-05-07T09:46:02;4.30;;;3.78;;
30420;SDS011;17218;54.070;10.012;2023-05-07T09:48:29;3.70;;;3.40;;
30420;SDS011;17218;54.070;10.012;2023-05-07T09:50:56;3.83;;;3.47;;
30420;SDS011;17218;54.070;10.012;2023-05-07T09:53:28;4.35;;;3.40;;
30420;SDS011;17218;54.070;10.012;2023-05-07T09:55:57;3.85;;;3.55;;
30420;SDS011;17218;54.070;10.012;2023-05-07T09:58:25;3.88;;;3.45;;
30420;SDS011;17218;54.070;10.012;2023-05-07T10:00:52;3.63;;;3.30;;
30420;SDS011;17218;54.070;10.012;2023-05-07T10:03:19;4.68;;;3.40;;
30420;SDS011;17218;54.070;10.012;2023-05-07T10:05:46;4.40;;;3.97;;
30420;SDS011;17218;54.070;10.012;2023-05-07T10:08:13;3.85;;;3.55;;
30420;SDS011;17218;54.070;10.012;2023-05-07T10:10:41;3.60;;;3.30;;
30420;SDS011;17218;54.070;10.012;2023-05-07T10:13:11;3.53;;;3.20;;
30420;SDS011;17218;54.070;10.012;2023-05-07T10:15:38;4.07;;;3.03;;
30420;SDS011;17218;54.070;10.012;2023-05-07T10:18:05;3.25;;;2.95;;
30420;SDS011;17218;54.070;10.012;2023-05-07T10:20:32;3.75;;;3.22;;
30420;SDS011;17218;54.070;10.012;2023-05-07T10:23:00;3.60;;;3.30;;
30420;SDS011;17218;54.070;10.012;2023-05-07T10:25:30;3.53;;;3.22;;
30420;SDS011;17218;54.070;10.012;2023-05-07T10:27:59;3.58;;;3.28;;
30420;SDS011;17218;54.070;10.012;2023-05-07T10:30:33;4.63;;;3.40;;
30420;SDS011;17218;54.070;10.012;2023-05-07T10:33:10;2.80;;;2.60;;
30420;SDS011;17218;54.070;10.012;2023-05-07T10:35:40;3.38;;;3.08;;
30420;SDS011;17218;54.070;10.012;2023-05-07T10:38:09;2.53;;;2.30;;
30420;SDS011;17218;54.070;10.012;2023-05-07T10:40:36;4.07;;;2.97;;
30420;SDS011;17218;54.070;10.012;2023-05-07T10:43:03;3.35;;;3.05;;
30420;SDS011;17218;54.070;10.012;2023-05-07T10:45:32;3.40;;;3.10;;
30420;SDS011;17218;54.070;10.012;2023-05-07T10:48:05;3.35;;;3.05;;
30420;SDS011;17218;54.070;10.012;2023-05-07T10:50:33;3.47;;;3.17;;
30420;SDS011;17218;54.070;10.012;2023-05-07T10:55:52;3.50;;;3.20;;
30420;SDS011;17218;54.070;10.012;2023-05-07T10:58:50;2.80;;;2.60;;
30420;SDS011;17218;54.070;10.012;2023-05-07T11:01:18;3.08;;;2.80;;
30420;SDS011;17218;54.070;10.012;2023-05-07T11:04:17;2.60;;;2.40;;
30420;SDS011;17218;54.070;10.012;2023-05-07T11:09:54;2.60;;;2.40;;
30420;SDS011;17218;54.070;10.012;2023-05-07T11:18:03;4.32;;;2.38;;
30420;SDS011;17218;54.070;10.012;2023-05-07T11:20:49;2.05;;;1.88;;
30420;SDS011;17218;54.070;10.012;2023-05-07T11:26:24;3.53;;;2.55;;
30420;SDS011;17218;54.070;10.012;2023-05-07T11:28:51;2.75;;;2.50;;
30420;SDS011;17218;54.070;10.012;2023-05-07T11:31:22;2.67;;;2.47;;
30420;SDS011;17218;54.070;10.012;2023-05-07T11:33:52;2.50;;;2.30;;
30420;SDS011;17218;54.070;10.012;2023-05-07T11:36:20;2.13;;;1.92;;
30420;SDS011;17218;54.070;10.012;2023-05-07T11:38:47;2.85;;;2.20;;
30420;SDS011;17218;54.070;10.012;2023-05-07T11:41:15;2.03;;;1.83;;
30420;SDS011;17218;54.070;10.012;2023-05-07T11:43:55;3.80;;;1.67;;
30420;SDS011;17218;54.070;10.012;2023-05-07T11:46:22;1.40;;;1.30;;
30420;SDS011;17218;54.070;10.012;2023-05-07T11:48:49;3.95;;;1.83;;
30420;SDS011;17218;54.070;10.012;2023-05-07T11:51:19;3.08;;;1.80;;
30420;SDS011;17218;54.070;10.012;2023-05-07T11:53:46;2.78;;;2.00;;
30420;SDS011;17218;54.070;10.012;2023-05-07T11:56:14;2.63;;;1.73;;
30420;SDS011;17218;54.070;10.012;2023-05-07T11:58:42;1.77;;;1.67;;
30420;SDS011;17218;54.070;10.012;2023-05-07T12:01:09;2.00;;;1.65;;
30420;SDS011;17218;54.070;10.012;2023-05-07T12:03:37;1.75;;;1.65;;
30420;SDS011;17218;54.070;10.012;2023-05-07T12:06:07;1.98;;;1.67;;
30420;SDS011;17218;54.070;10.012;2023-05-07T12:08:37;1.65;;;1.38;;
30420;SDS011;17218;54.070;10.012;2023-05-07T12:11:07;1.85;;;1.50;;
30420;SDS011;17218;54.070;10.012;2023-05-07T12:13:34;1.60;;;1.50;;
30420;SDS011;17218;54.070;10.012;2023-05-07T12:16:01;1.83;;;1.73;;
30420;SDS011;17218;54.070;10.012;2023-05-07T12:18:29;4.72;;;1.75;;
30420;SDS011;17218;54.070;10.012;2023-05-07T12:20:56;1.60;;;1.50;;
30420;SDS011;17218;54.070;10.012;2023-05-07T12:23:23;1.65;;;1.55;;
30420;SDS011;17218;54.070;10.012;2023-05-07T12:25:51;1.70;;;1.60;;
30420;SDS011;17218;54.070;10.012;2023-05-07T12:28:17;2.97;;;1.80;;
30420;SDS011;17218;54.070;10.012;2023-05-07T12:30:46;2.60;;;2.05;;
30420;SDS011;17218;54.070;10.012;2023-05-07T12:33:15;2.28;;;1.67;;
30420;SDS011;17218;54.070;10.012;2023-05-07T12:35:43;4.10;;;1.52;;
30420;SDS011;17218;54.070;10.012;2023-05-07T12:38:10;1.95;;;1.80;;
30420;SDS011;17218;54.070;10.012;2023-05-07T12:40:38;2.20;;;1.70;;
30420;SDS011;17218;54.070;10.012;2023-05-07T12:43:07;1.98;;;1.60;;
30420;SDS011;17218;54.070;10.012;2023-05-07T12:45:36;2.97;;;1.58;;
30420;SDS011;17218;54.070;10.012;2023-05-07T12:48:04;1.98;;;1.75;;
30420;SDS011;17218;54.070;10.012;2023-05-07T12:50:31;2.00;;;1.80;;
30420;SDS011;17218;54.070;10.012;2023-05-07T12:52:58;2.50;;;1.88;;
30420;SDS011;17218;54.070;10.012;2023-05-07T12:55:25;2.15;;;1.65;;
30420;SDS011;17218;54.070;10.012;2023-05-07T12:57:52;1.80;;;1.70;;
30420;SDS011;17218;54.070;10.012;2023-05-07T13:00:32;2.83;;;1.83;;
30420;SDS011;17218;54.070;10.012;2023-05-07T13:03:00;1.80;;;1.67;;
30420;SDS011;17218;54.070;10.012;2023-05-07T13:05:26;2.25;;;1.80;;
30420;SDS011;17218;54.070;10.012;2023-05-07T13:07:53;1.83;;;1.73;;
30420;SDS011;17218;54.070;10.012;2023-05-07T13:10:19;1.60;;;1.48;;
30420;SDS011;17218;54.070;10.012;2023-05-07T13:12:46;1.83;;;1.60;;
30420;SDS011;17218;54.070;10.012;2023-05-07T13:15:12;2.45;;;2.00;;
30420;SDS011;17218;54.070;10.012;2023-05-07T13:17:40;1.90;;;1.67;;
30420;SDS011;17218;54.070;10.012;2023-05-07T13:20:08;1.65;;;1.55;;
30420;SDS011;17218;54.070;10.012;2023-05-07T13:22:36;1.40;;;1.30;;
30420;SDS011;17218;54.070;10.012;2023-05-07T13:25:03;1.75;;;1.65;;
30420;SDS011;17218;54.070;10.012;2023-05-07T13:27:29;1.90;;;1.40;;
30420;SDS011;17218;54.070;10.012;2023-05-07T13:29:56;1.30;;;1.20;;
30420;SDS011;17218;54.070;10.012;2023-05-07T13:32:22;1.30;;;1.20;;
30420;SDS011;17218;54.070;10.012;2023-05-07T13:34:50;1.33;;;1.23;;
30420;SDS011;17218;54.070;10.012;2023-05-07T13:37:19;1.30;;;1.20;;
30420;SDS011;17218;54.070;10.012;2023-05-07T13:39:46;1.80;;;1.48;;
30420;SDS011;17218;54.070;10.012;2023-05-07T13:42:12;4.57;;;1.23;;
30420;SDS011;17218;54.070;10.012;2023-05-07T13:44:39;2.10;;;1.50;;
30420;SDS011;17218;54.070;10.012;2023-05-07T13:47:05;1.75;;;1.42;;
30420;SDS011;17218;54.070;10.012;2023-05-07T13:49:32;1.45;;;1.35;;
30420;SDS011;17218;54.070;10.012;2023-05-07T13:51:59;1.48;;;1.30;;
30420;SDS011;17218;54.070;10.012;2023-05-07T13:54:26;1.38;;;1.27;;
30420;SDS011;17218;54.070;10.012;2023-05-07T13:56:52;1.10;;;1.00;;
30420;SDS011;17218;54.070;10.012;2023-05-07T13:59:19;2.25;;;1.10;;
30420;SDS011;17218;54.070;10.012;2023-05-07T14:01:45;1.73;;;1.02;;
30420;SDS011;17218;54.070;10.012;2023-05-07T14:04:12;2.50;;;1.20;;
30420;SDS011;17218;54.070;10.012;2023-05-07T14:06:38;1.73;;;1.25;;
30420;SDS011;17218;54.070;10.012;2023-05-07T14:09:06;2.00;;;1.10;;
30420;SDS011;17218;54.070;10.012;2023-05-07T14:11:33;1.30;;;1.20;;
30420;SDS011;17218;54.070;10.012;2023-05-07T14:13:59;2.08;;;1.33;;
30420;SDS011;17218;54.070;10.012;2023-05-07T14:16:25;1.85;;;1.23;;
30420;SDS011;17218;54.070;10.012;2023-05-07T14:18:52;1.30;;;1.20;;
30420;SDS011;17218;54.070;10.012;2023-05-07T14:21:18;1.33;;;1.10;;
30420;SDS011;17218;54.070;10.012;2023-05-07T14:23:45;1.30;;;1.20;;
30420;SDS011;17218;54.070;10.012;2023-05-07T14:26:13;1.08;;;0.98;;
30420;SDS011;17218;54.070;10.012;2023-05-07T14:28:40;1.58;;;1.20;;
30420;SDS011;17218;54.070;10.012;2023-05-07T14:31:11;1.98;;;1.10;;
30420;SDS011;17218;54.070;10.012;2023-05-07T14:33:37;1.40;;;1.10;;
30420;SDS011;17218;54.070;10.012;2023-05-07T14:36:04;1.35;;;1.25;;
30420;SDS011;17218;54.070;10.012;2023-05-07T14:38:30;1.20;;;1.10;;
30420;SDS011;17218;54.070;10.012;2023-05-07T14:40:57;1.20;;;1.10;;
30420;SDS011;17218;54.070;10.012;2023-05-07T14:43:26;1.95;;;1.13;;
30420;SDS011;17218;54.070;10.012;2023-05-07T14:45:52;2.05;;;1.10;;